createdAt,value
2022-08-07T00:01:12.536Z,15.96
2022-08-07T00:06:33.093Z,15.94
2022-08-07T00:11:47.866Z,15.93
2022-08-07T00:16:59.624Z,15.88
2022-08-07T00:22:03.453Z,15.81
2022-08-07T00:27:09.284Z,15.75
2022-08-07T00:32:14.367Z,15.72
2022-08-07T00:37:17.372Z,15.69
2022-08-07T00:42:29.046Z,15.66
2022-08-07T00:48:07.593Z,15.64
2022-08-07T00:52:55.662Z,15.61
2022-08-07T00:58:00.009Z,15.58
2022-08-07T01:03:03.156Z,15.63
2022-08-07T01:08:06.726Z,15.58
2022-08-07T01:13:16.528Z,15.62
2022-08-07T01:18:20.924Z,15.59
2022-08-07T01:23:36.426Z,15.53
2022-08-07T01:28:45.978Z,15.44
2022-08-07T01:33:56.310Z,15.42
2022-08-07T01:39:09.788Z,15.36
2022-08-07T01:44:16.404Z,15.32
2022-08-07T01:49:22.197Z,15.29
2022-08-07T01:54:36.438Z,15.20
2022-08-07T01:59:51.085Z,15.09
2022-08-07T02:04:58.203Z,15.02
2022-08-07T02:10:08.040Z,14.98
2022-08-07T02:15:22.581Z,14.87
2022-08-07T02:20:28.171Z,14.79
2022-08-07T02:26:30.800Z,14.68
2022-08-07T02:31:10.133Z,14.66
2022-08-07T02:36:29.456Z,14.64
2022-08-07T02:41:50.773Z,14.63
2022-08-07T02:46:59.688Z,14.61
2022-08-07T02:52:13.013Z,14.60
2022-08-07T02:57:21.747Z,14.55
2022-08-07T03:02:26.255Z,14.57
2022-08-07T03:07:43.099Z,14.57
2022-08-07T03:12:57.121Z,14.53
2022-08-07T03:18:03.545Z,14.51
2022-08-07T03:23:14.413Z,14.53
2022-08-07T03:28:37.260Z,14.52
2022-08-07T03:33:43.664Z,14.52
2022-08-07T03:38:48.985Z,14.53
2022-08-07T03:43:57.326Z,14.53
2022-08-07T03:49:06.082Z,14.49
2022-08-07T03:54:36.436Z,14.47
2022-08-07T03:59:46.904Z,14.44
2022-08-07T04:05:08.654Z,14.42
2022-08-07T04:10:15.749Z,14.44
2022-08-07T04:15:25.499Z,14.46
2022-08-07T04:20:30.712Z,14.45
2022-08-07T04:25:39.527Z,14.47
2022-08-07T04:30:57.060Z,14.52
2022-08-07T04:36:09.802Z,14.53
2022-08-07T04:41:19.055Z,14.47
2022-08-07T04:46:35.973Z,14.53
2022-08-07T04:52:04.332Z,14.49
2022-08-07T04:58:12.100Z,14.47
2022-08-07T05:02:49.849Z,14.47
2022-08-07T05:07:59.491Z,14.62
2022-08-07T05:14:44.839Z,14.68
2022-08-07T05:18:36.873Z,14.67
2022-08-07T05:23:46.587Z,14.63
2022-08-07T05:28:52.242Z,14.67
2022-08-07T05:34:05.464Z,14.70
2022-08-07T05:40:14.377Z,14.74
2022-08-07T05:44:52.714Z,14.78
2022-08-07T05:50:08.837Z,14.80
2022-08-07T05:55:12.916Z,14.87
2022-08-07T06:00:21.881Z,15.01
2022-08-07T06:05:35.497Z,15.11
2022-08-07T06:10:47.181Z,15.21
2022-08-07T06:16:00.582Z,15.27
2022-08-07T06:22:15.936Z,15.35
2022-08-07T06:26:32.494Z,15.48
2022-08-07T06:31:47.218Z,15.62
2022-08-07T06:36:57.401Z,15.76
2022-08-07T06:42:10.285Z,15.84
2022-08-07T06:47:57.521Z,15.95
2022-08-07T06:53:18.595Z,16.08
2022-08-07T06:58:33.904Z,16.21
2022-08-07T07:03:48.148Z,16.32
2022-08-07T07:08:54.885Z,16.38
2022-08-07T07:14:02.392Z,16.51
2022-08-07T07:19:54.849Z,16.59
2022-08-07T07:24:34.581Z,16.68
2022-08-07T07:30:09.430Z,16.85
2022-08-07T07:35:06.145Z,17.00
2022-08-07T07:40:16.604Z,17.20
2022-08-07T07:45:22.751Z,17.49
2022-08-07T07:50:48.736Z,17.88
2022-08-07T07:56:00.806Z,18.15
2022-08-07T08:02:02.430Z,18.43
2022-08-07T08:06:29.925Z,18.76
2022-08-07T08:12:00.092Z,19.15
2022-08-07T08:17:55.600Z,19.36
2022-08-07T08:22:55.680Z,19.54
2022-08-07T08:28:06.063Z,19.92
2022-08-07T08:33:16.853Z,20.57
2022-08-07T08:38:29.232Z,20.57
2022-08-07T08:43:42.970Z,20.58
2022-08-07T08:49:08.206Z,20.95
2022-08-07T08:54:25.024Z,21.48
2022-08-07T08:59:42.196Z,21.81
2022-08-07T09:04:59.163Z,22.01
2022-08-07T09:10:11.805Z,22.69
2022-08-07T09:16:24.533Z,23.21
2022-08-07T09:21:13.545Z,23.44
2022-08-07T09:26:40.723Z,24.14
2022-08-07T09:32:00.490Z,24.18
2022-08-07T09:37:10.924Z,23.92
2022-08-07T09:42:33.269Z,23.82
2022-08-07T09:47:59.632Z,24.17
2022-08-07T09:53:12.622Z,24.34
2022-08-07T09:58:32.467Z,24.57
2022-08-07T10:04:14.314Z,24.38
2022-08-07T10:10:01.036Z,24.63
2022-08-07T10:15:19.876Z,25.42
2022-08-07T10:20:34.146Z,25.13
2022-08-07T10:25:58.773Z,25.19
2022-08-07T10:31:17.823Z,25.00
2022-08-07T10:36:36.263Z,25.35
2022-08-07T10:41:46.968Z,25.33
2022-08-07T10:47:11.829Z,25.35
2022-08-07T10:52:33.564Z,25.40
2022-08-07T10:57:58.464Z,25.80
2022-08-07T11:03:12.750Z,25.71
2022-08-07T11:08:29.070Z,25.54
2022-08-07T11:14:43.940Z,25.75
2022-08-07T11:19:08.296Z,26.09
2022-08-07T11:24:22.976Z,25.94
2022-08-07T11:29:41.745Z,26.87
2022-08-07T11:34:52.270Z,26.96
2022-08-07T11:40:19.279Z,27.28
2022-08-07T11:45:36.001Z,27.40
2022-08-07T11:50:58.063Z,27.57
2022-08-07T11:56:26.965Z,26.91
2022-08-07T12:01:58.739Z,27.06
2022-08-07T12:07:20.252Z,26.86
2022-08-07T12:12:38.837Z,27.20
2022-08-07T12:17:59.562Z,27.29
2022-08-07T12:23:21.408Z,26.89
2022-08-07T12:28:53.080Z,27.27
2022-08-07T12:34:01.823Z,27.57
2022-08-07T12:39:09.518Z,27.21
2022-08-07T12:44:35.095Z,26.86
2022-08-07T12:49:51.945Z,27.19
2022-08-07T12:55:05.595Z,27.42
2022-08-07T13:00:20.850Z,27.32
2022-08-07T13:06:02.847Z,27.46
2022-08-07T13:11:25.023Z,28.11
2022-08-07T13:16:40.821Z,28.18
2022-08-07T13:21:57.342Z,27.76
2022-08-07T13:27:12.983Z,27.97
2022-08-07T13:32:32.568Z,28.07
2022-08-07T13:37:58.917Z,28.30
2022-08-07T13:43:11.865Z,28.43
2022-08-07T13:48:27.902Z,28.48
2022-08-07T13:53:59.732Z,28.39
2022-08-07T13:59:05.820Z,28.66
2022-08-07T14:04:21.254Z,28.81
2022-08-07T14:10:01.564Z,28.72
2022-08-07T14:14:57.182Z,28.72
2022-08-07T14:20:40.525Z,29.08
2022-08-07T14:25:39.462Z,29.09
2022-08-07T14:30:50.671Z,28.89
2022-08-07T14:36:00.842Z,28.47
2022-08-07T14:41:14.607Z,28.74
2022-08-07T14:46:30.533Z,28.78
2022-08-07T14:52:04.843Z,28.50
2022-08-07T14:57:02.623Z,28.08
2022-08-07T15:02:31.456Z,28.00
2022-08-07T15:07:47.555Z,27.92
2022-08-07T15:12:58.443Z,27.75
2022-08-07T15:25:03.954Z,26.69
2022-08-07T15:34:26.117Z,26.69
2022-08-07T15:39:57.852Z,26.19
2022-08-07T15:44:57.045Z,26.16
2022-08-07T15:50:06.743Z,26.13
2022-08-07T15:55:15.722Z,26.15
2022-08-07T16:00:31.417Z,26.16
2022-08-07T16:05:39.477Z,25.85
2022-08-07T16:10:48.610Z,26.05
2022-08-07T16:16:03.484Z,26.13
2022-08-07T16:22:03.080Z,26.11
2022-08-07T16:26:59.266Z,25.74
2022-08-07T16:32:33.036Z,25.56
2022-08-07T16:38:09.494Z,25.82
2022-08-07T16:44:03.953Z,26.05
2022-08-07T16:50:26.731Z,26.47
2022-08-07T16:55:08.110Z,26.41
2022-08-07T17:00:29.423Z,25.87
2022-08-07T17:06:19.669Z,25.20
2022-08-07T17:11:14.374Z,24.99
2022-08-07T17:16:25.008Z,24.84
2022-08-07T17:21:51.255Z,24.81
2022-08-07T17:27:00.076Z,24.48
2022-08-07T17:32:30.618Z,24.29
2022-08-07T17:38:08.423Z,24.32
2022-08-07T17:43:20.012Z,24.08
2022-08-07T17:48:56.897Z,23.83
2022-08-07T17:54:11.504Z,23.73
2022-08-07T17:59:23.706Z,23.53
2022-08-07T18:04:34.423Z,23.29
2022-08-07T18:09:48.415Z,23.16
2022-08-07T18:15:12.481Z,23.05
2022-08-07T18:21:11.607Z,22.90
2022-08-07T18:26:00.925Z,22.78
2022-08-07T18:31:18.662Z,22.67
2022-08-07T18:36:39.769Z,22.45
2022-08-07T18:41:56.172Z,22.17
2022-08-07T18:47:20.904Z,21.98
2022-08-07T18:53:01.628Z,21.75
2022-08-07T18:58:36.779Z,21.58
2022-08-07T19:03:49.702Z,21.47
2022-08-07T19:09:55.716Z,21.16
2022-08-07T19:14:51.035Z,20.89
2022-08-07T19:20:04.472Z,20.75
2022-08-07T19:26:22.649Z,20.59
2022-08-07T19:31:04.538Z,20.48
2022-08-07T19:36:05.234Z,20.37
2022-08-07T19:41:15.010Z,20.21
2022-08-07T19:46:26.507Z,20.11
2022-08-07T19:51:52.927Z,19.91
2022-08-07T19:58:02.350Z,19.86
2022-08-07T20:02:31.160Z,19.70
2022-08-07T20:07:47.201Z,19.63
2022-08-07T20:12:56.428Z,19.52
2022-08-07T20:18:04.261Z,19.36
2022-08-07T20:23:23.063Z,19.29
2022-08-07T20:28:37.074Z,19.23
2022-08-07T20:33:43.724Z,19.21
2022-08-07T20:39:00.283Z,19.12
2022-08-07T20:44:06.302Z,19.00
2022-08-07T20:49:58.517Z,18.93
2022-08-07T20:54:41.783Z,18.81
2022-08-07T21:00:09.208Z,18.74
2022-08-07T21:05:17.113Z,18.67
2022-08-07T21:10:41.208Z,18.62
2022-08-07T21:16:00.466Z,18.53
2022-08-07T21:21:05.596Z,18.46
2022-08-07T21:26:22.833Z,18.34
2022-08-07T21:32:42.439Z,18.27
2022-08-07T21:37:04.025Z,18.21
2022-08-07T21:47:50.489Z,18.08
2022-08-07T21:53:03.553Z,17.99
2022-08-07T21:58:32.436Z,17.96
2022-08-07T22:03:44.503Z,17.86
2022-08-07T22:08:55.773Z,17.75
2022-08-07T22:14:05.175Z,17.72
2022-08-07T22:19:30.118Z,17.64
2022-08-07T22:24:39.022Z,17.55
2022-08-07T22:29:49.898Z,17.49
2022-08-07T22:34:57.767Z,17.46
2022-08-07T22:40:12.179Z,17.41
2022-08-07T22:46:21.748Z,17.38
2022-08-07T22:51:08.350Z,17.34
2022-08-07T22:56:20.224Z,17.28
2022-08-07T23:01:50.728Z,17.24
2022-08-07T23:07:25.922Z,17.17
2022-08-07T23:12:54.923Z,17.13
2022-08-07T23:18:12.742Z,17.05
2022-08-07T23:24:05.085Z,17.01
2022-08-07T23:30:38.838Z,16.95
2022-08-07T23:35:37.610Z,16.95
2022-08-07T23:40:49.387Z,16.89
2022-08-07T23:46:10.916Z,16.88
2022-08-07T23:52:59.615Z,16.85
2022-08-07T23:56:53.432Z,16.87
